Flight Track Log - Related Links

Times and Time Zones

All times are in EDT time to prevent confusion due to time zone crossing. See the EVA106 flight status page for this flight to view local times or setup timezone preferences in your user account.

Time Position Orientation Groundspeed Altitude Reporting Facility
EDT Latitude Longitude Course Direction KTS MPH feet Rate Location/Type
Sun 08:36:29 PM 25.1815 121.3558 50° Northeast 284 327 4,500  Level FlightAware ADS-B (KHAO)
Sun 08:36:46 PM 25.1947 121.3729 50° Northeast 287 330 5,500 3,706 Climbing FlightAware ADS-B (KHAO)
Sun 08:37:03 PM 25.2087 121.3932 61° Northeast 265 305 6,600 42 Climbing FlightAware ADS-B (KHAO)
Sun 08:39:00 PM 25.3787 121.5576 41° Northeast  Level Estimated
Sun 08:40:00 PM 25.4658 121.6421 41° Northeast  Level Estimated
Sun 08:41:00 PM 25.5529 121.7267 41° Northeast  Level Estimated
Sun 08:42:00 PM 25.6399 121.8115 41° Northeast  Level Estimated
Sun 08:43:00 PM 25.7268 121.8963 41° Northeast  Level Estimated
Sun 08:44:00 PM 25.8137 121.9813 41° Northeast  Level Estimated
Sun 08:45:00 PM 25.9006 122.0665 41° Northeast  Level Estimated
Sun 08:46:00 PM 25.9874 122.1517 41° Northeast  Level Estimated
Sun 08:47:00 PM 26.0741 122.2371 41° Northeast  Level Estimated
Sun 08:48:00 PM 26.1608 122.3226 42° Northeast  Level Estimated
Sun 08:49:00 PM 26.2475 122.4082 42° Northeast  Level Estimated
Sun 08:50:00 PM 26.3341 122.4939 42° Northeast  Level Estimated
Sun 08:51:00 PM 26.4206 122.5798 42° Northeast  Level Estimated
Sun 08:52:00 PM 26.5071 122.6658 42° Northeast  Level Estimated
Sun 08:53:00 PM 26.5936 122.7520 42° Northeast  Level Estimated
Sun 08:54:00 PM 26.6800 122.8382 42° Northeast  Level Estimated
Sun 08:55:00 PM 26.7663 122.9247 42° Northeast  Level Estimated
Sun 08:56:00 PM 26.8526 123.0112 42° Northeast  Level Estimated
Sun 08:57:00 PM 26.9389 123.0978 42° Northeast  Level Estimated
Sun 08:58:00 PM 27.0250 123.1846 42° Northeast  Level Estimated
Sun 08:59:00 PM 27.1112 123.2716 42° Northeast  Level Estimated
Sun 09:00:00 PM 27.1973 123.3586 42° Northeast  Level Estimated
Sun 09:01:00 PM 27.2833 123.4458 42° Northeast  Level Estimated
Sun 09:02:00 PM 27.3692 123.5332 42° Northeast  Level Estimated
Sun 09:03:00 PM 27.4552 123.6206 42° Northeast  Level Estimated
Sun 09:04:00 PM 27.5410 123.7082 42° Northeast  Level Estimated
Sun 09:05:00 PM 27.6268 123.7960 42° Northeast  Level Estimated
Sun 09:06:00 PM 27.7126 123.8839 42° Northeast  Level Estimated
Sun 09:07:00 PM 27.7983 123.9719 42° Northeast  Level Estimated
Sun 09:08:00 PM 27.8839 124.0600 42° Northeast  Level Estimated
Sun 09:09:00 PM 27.9695 124.1483 42° Northeast  Level Estimated
Sun 09:10:00 PM 28.0550 124.2368 42° Northeast  Level Estimated
Sun 09:11:00 PM 28.1405 124.3253 42° Northeast  Level Estimated
Sun 09:12:00 PM 28.2259 124.4140 42° Northeast  Level Estimated
Sun 09:13:00 PM 28.3113 124.5029 42° Northeast  Level Estimated
Sun 09:14:00 PM 28.3966 124.5919 43° Northeast  Level Estimated
Sun 09:15:00 PM 28.4818 124.6811 43° Northeast  Level Estimated
Sun 09:16:00 PM 28.5670 124.7703 43° Northeast  Level Estimated
Sun 09:17:00 PM 28.6521 124.8598 43° Northeast  Level Estimated
Sun 09:18:00 PM 28.7372 124.9494 43° Northeast  Level Estimated
Sun 09:19:00 PM 28.8222 125.0391 43° Northeast  Level Estimated
Sun 09:20:00 PM 28.9071 125.1290 43° Northeast  Level Estimated
Sun 09:21:00 PM 28.9920 125.2190 43° Northeast  Level Estimated
Sun 09:22:00 PM 29.0768 125.3092 43° Northeast  Level Estimated
Sun 09:23:00 PM 29.1616 125.3995 43° Northeast  Level Estimated
Sun 09:24:00 PM 29.2463 125.4899 43° Northeast  Level Estimated
Sun 09:25:00 PM 29.3310 125.5806 43° Northeast  Level Estimated
Sun 09:26:00 PM 29.4155 125.6713 43° Northeast  Level Estimated
Sun 09:27:00 PM 29.5001 125.7622 43° Northeast  Level Estimated
Sun 09:28:00 PM 29.5845 125.8533 43° Northeast  Level Estimated
Sun 09:29:00 PM 29.6689 125.9445 43° Northeast  Level Estimated
Sun 09:30:00 PM 29.7533 126.0359 43° Northeast  Level Estimated
Sun 09:31:00 PM 29.8375 126.1274 43° Northeast  Level Estimated
Sun 09:32:00 PM 29.9217 126.2191 43° Northeast  Level Estimated
Sun 09:33:00 PM 30.0059 126.3110 43° Northeast  Level Estimated
Sun 09:34:00 PM 30.0900 126.4029 43° Northeast  Level Estimated
Sun 09:35:00 PM 30.1740 126.4951 43° Northeast  Level Estimated
Sun 09:36:00 PM 30.2579 126.5874 44° Northeast  Level Estimated
Sun 09:37:00 PM 30.3418 126.6799 44° Northeast  Level Estimated
Sun 09:38:00 PM 30.4256 126.7725 44° Northeast  Level Estimated
Sun 09:39:00 PM 30.5094 126.8653 44° Northeast  Level Estimated
Sun 09:40:00 PM 30.5931 126.9582 44° Northeast  Level Estimated
Sun 09:41:00 PM 30.6767 127.0513 44° Northeast  Level Estimated
Sun 09:42:00 PM 30.7603 127.1446 44° Northeast  Level Estimated
Sun 09:43:00 PM 30.8438 127.2380 44° Northeast  Level Estimated
Sun 09:44:00 PM 30.9272 127.3316 44° Northeast  Level Estimated
Sun 09:45:00 PM 31.0105 127.4254 44° Northeast  Level Estimated
Sun 09:46:00 PM 31.0938 127.5193 44° Northeast  Level Estimated
Sun 09:47:00 PM 31.1771 127.6134 44° Northeast  Level Estimated
Sun 09:48:00 PM 31.2602 127.7076 44° Northeast  Level Estimated
Sun 09:49:00 PM 31.3433 127.8020 44° Northeast  Level Estimated
Sun 09:50:00 PM 31.4263 127.8966 44° Northeast  Level Estimated
Sun 09:51:00 PM 31.5093 127.9913 44° Northeast  Level Estimated
Sun 09:52:00 PM 31.5921 128.0863 44° Northeast  Level Estimated
Sun 09:53:00 PM 31.6749 128.1814 44° Northeast  Level Estimated
Sun 09:54:00 PM 31.7577 128.2766 44° Northeast  Level Estimated
Sun 09:55:00 PM 31.8403 128.3720 44° Northeast  Level Estimated
Sun 09:56:00 PM 31.9229 128.4676 44° Northeast  Level Estimated
Sun 09:57:00 PM 32.0054 128.5634 45° Northeast  Level Estimated
Sun 09:58:00 PM 32.0879 128.6593 45° Northeast  Level Estimated
Sun 09:59:00 PM 32.1703 128.7554 45° Northeast  Level Estimated
Sun 10:00:00 PM 32.2526 128.8517 45° Northeast  Level Estimated
Sun 10:01:00 PM 32.3348 128.9482 45° Northeast  Level Estimated
Sun 10:02:00 PM 32.4170 129.0448 45° Northeast  Level Estimated
Sun 10:03:00 PM 32.4990 129.1416 45° Northeast  Level Estimated
Sun 10:04:00 PM 32.5810 129.2386 45° Northeast  Level Estimated
Sun 10:05:00 PM 32.6630 129.3358 45° Northeast  Level Estimated
Sun 10:06:00 PM 32.7448 129.4332 45° Northeast  Level Estimated
Sun 10:07:00 PM 32.8266 129.5307 45° Northeast  Level Estimated
Sun 10:08:00 PM 32.9083 129.6284 45° Northeast  Level Estimated
Sun 10:09:00 PM 32.9899 129.7263 45° Northeast  Level Estimated
Sun 10:10:00 PM 33.0715 129.8243 45° Northeast  Level Estimated
Sun 10:11:00 PM 33.1530 129.9226 45° Northeast  Level Estimated
Sun 10:12:00 PM 33.2344 130.0210 45° Northeast  Level Estimated
Sun 10:13:00 PM 33.3157 130.1196 45° Northeast  Level Estimated
Sun 10:14:00 PM 33.3969 130.2184 45° Northeast  Level Estimated
Sun 10:14:10 PM 33.7287 129.9392 North 265 305 9,600  Level FlightAware ADS-B
Sun 10:15:00 PM 33.4781 130.3174 45° Northeast  Level Estimated
Sun 10:16:00 PM 33.5592 130.4166 46° Northeast  Level Estimated
Sun 10:17:00 PM 33.5866 130.4502 46° Northeast  Level Estimated
Sun 10:18:00 PM 33.5866 130.4502 North  Level Estimated
Sun 10:19:00 PM 33.5866 130.4502 North  Level Estimated
Sun 10:20:00 PM 33.5866 130.4502 North  Level Estimated
Sun 10:21:00 PM 33.5866 130.4502 North  Level Estimated
Sun 10:22:00 PM 33.5866 130.4502 North  Level Estimated
Sun 10:23:00 PM 33.5866 130.4502 North  Level Estimated
Sun 10:24:00 PM 33.5866 130.4502 North  Level Estimated
Sun 10:25:00 PM 33.5866 130.4502 North  Level Estimated
Sun 10:25:38 PM 33.6092 130.4348 150° Southeast 146 168 500  Level FlightAware ADS-B
Sun 10:28:00 PM 33.5866 130.4502 150° Southeast  Level Estimated
Sun 10:29:00 PM 33.5866 130.4502 North  Level Estimated
Sun 10:30:00 PM 33.5866 130.4502 North  Level Estimated
Sun 10:31:00 PM 33.5866 130.4502 North  Level Estimated

Login

Don't have an account? Register now (free) for customized features, flight alerts, and more!